createdAt,value
2019-01-10T00:00:41.719Z,1006.24
2019-01-10T00:01:46.641Z,1006.33
2019-01-10T00:02:44.536Z,1006.28
2019-01-10T00:03:43.817Z,1006.4
2019-01-10T00:04:41.520Z,1006.41
2019-01-10T00:05:43.985Z,1006.4
2019-01-10T00:06:50.180Z,1006.37
2019-01-10T00:07:47.477Z,1006.35
2019-01-10T00:08:45.827Z,1006.34
2019-01-10T00:09:42.359Z,1006.34
2019-01-10T00:10:43.844Z,1006.35
2019-01-10T00:11:40.477Z,1006.29
2019-01-10T00:12:40.433Z,1006.25
2019-01-10T00:13:36.930Z,1006.28
2019-01-10T00:14:38.030Z,1006.34
2019-01-10T00:15:39.700Z,1006.29
2019-01-10T00:16:41.991Z,1006.28
2019-01-10T00:17:40.109Z,1006.26
2019-01-10T00:18:36.037Z,1006.31
2019-01-10T00:19:32.485Z,1006.31
2019-01-10T00:20:34.377Z,1006.25
2019-01-10T00:21:37.026Z,1006.32
2019-01-10T00:22:32.723Z,1006.37
2019-01-10T00:23:29.454Z,1006.32
2019-01-10T00:24:25.366Z,1006.28
2019-01-10T00:25:23.437Z,1006.35
2019-01-10T00:26:19.597Z,1006.41
2019-01-10T00:27:16.923Z,1006.39
2019-01-10T00:28:13.798Z,1006.41
2019-01-10T00:29:10.688Z,1006.54
2019-01-10T00:30:06.513Z,1006.44
2019-01-10T00:31:05.876Z,1006.48
2019-01-10T00:32:11.856Z,1006.51
2019-01-10T00:33:11.218Z,1006.5
2019-01-10T00:34:08.785Z,1006.45
2019-01-10T00:35:07.682Z,1006.5
2019-01-10T00:36:04.675Z,1006.41
2019-01-10T00:37:01.407Z,1006.48
2019-01-10T00:38:02.053Z,1006.5
2019-01-10T00:39:04.644Z,1006.56
2019-01-10T00:40:00.632Z,1006.59
2019-01-10T00:40:56.669Z,1006.55
2019-01-10T00:41:52.752Z,1006.51
2019-01-10T00:42:50.772Z,1006.56
2019-01-10T00:43:50.660Z,1006.48
2019-01-10T00:44:56.559Z,1006.52
2019-01-10T00:45:57.082Z,1006.47
2019-01-10T00:46:52.938Z,1006.45
2019-01-10T00:47:50.028Z,1006.49
2019-01-10T00:48:52.222Z,1006.54
2019-01-10T00:49:48.365Z,1006.51
2019-01-10T00:50:45.014Z,1006.48
2019-01-10T00:51:40.764Z,1006.48
2019-01-10T00:52:37.259Z,1006.49
2019-01-10T00:53:33.409Z,1006.49
2019-01-10T00:54:29.234Z,1006.48
2019-01-10T00:55:26.339Z,1006.43
2019-01-10T00:56:24.805Z,1006.49
2019-01-10T00:57:30.465Z,1006.59
2019-01-10T00:58:30.264Z,1006.45
2019-01-10T00:59:26.717Z,1006.54
2019-01-10T01:00:26.794Z,1006.54
2019-01-10T01:01:23.529Z,1006.48
2019-01-10T01:02:21.025Z,1006.54
2019-01-10T01:03:23.972Z,1006.52
2019-01-10T01:04:24.177Z,1006.57
2019-01-10T01:05:22.808Z,1006.52
2019-01-10T01:06:27.662Z,1006.58
2019-01-10T01:07:26.636Z,1006.66
2019-01-10T01:08:22.801Z,1006.64
2019-01-10T01:09:23.244Z,1006.6
2019-01-10T01:10:18.864Z,1006.73
2019-01-10T01:11:16.872Z,1006.6
2019-01-10T01:12:14.941Z,1006.6
2019-01-10T01:13:11.808Z,1006.55
2019-01-10T01:14:08.096Z,1006.57
2019-01-10T01:15:06.443Z,1006.61
2019-01-10T01:16:07.696Z,1006.55
2019-01-10T01:17:03.296Z,1006.58
2019-01-10T01:18:01.752Z,1006.55
2019-01-10T01:18:59.413Z,1006.64
2019-01-10T01:19:56.616Z,1006.69
2019-01-10T01:20:52.178Z,1006.63
2019-01-10T01:21:48.827Z,1006.63
2019-01-10T01:22:46.414Z,1006.61
2019-01-10T01:23:47.864Z,1006.72
2019-01-10T01:24:44.314Z,1006.77
2019-01-10T01:25:41.213Z,1006.71
2019-01-10T01:26:39.043Z,1006.8
2019-01-10T01:27:39.971Z,1006.79
2019-01-10T01:28:40.592Z,1006.79
2019-01-10T01:29:38.105Z,1006.8
2019-01-10T01:30:33.187Z,1006.79
2019-01-10T01:30:56.532Z,1006.74
2019-01-10T01:31:54.293Z,1006.71
2019-01-10T01:32:51.834Z,1006.88
2019-01-10T01:33:48.151Z,1006.73
2019-01-10T01:34:45.125Z,1006.76
2019-01-10T01:35:44.255Z,1006.77
2019-01-10T01:36:40.155Z,1006.73
2019-01-10T01:37:38.256Z,1006.83
2019-01-10T01:38:35.109Z,1006.8
2019-01-10T01:39:30.783Z,1006.86
2019-01-10T01:40:26.377Z,1006.83
2019-01-10T01:41:26.153Z,1006.89
2019-01-10T01:42:24.724Z,1006.88
2019-01-10T01:43:23.057Z,1006.85
2019-01-10T01:44:19.877Z,1006.93
2019-01-10T01:45:21.215Z,1006.93
2019-01-10T01:46:25.408Z,1006.86
2019-01-10T01:47:22.200Z,1006.96
2019-01-10T01:48:31.002Z,1006.9
2019-01-10T01:49:32.482Z,1006.99
2019-01-10T01:50:29.506Z,1007.01
2019-01-10T01:51:27.079Z,1006.99
2019-01-10T01:52:26.054Z,1007.02
2019-01-10T01:53:21.903Z,1006.93
2019-01-10T01:54:24.197Z,1007.06
2019-01-10T01:55:21.946Z,1007.03
2019-01-10T01:56:36.382Z,1007.05
2019-01-10T01:57:32.238Z,1007.12
2019-01-10T01:58:29.234Z,1007.11
2019-01-10T01:59:26.000Z,1007.06
2019-01-10T02:00:23.726Z,1007.03
2019-01-10T02:01:20.970Z,1007.11
2019-01-10T02:02:19.090Z,1007.15
2019-01-10T02:03:14.498Z,1007.18
2019-01-10T02:04:10.405Z,1007.18
2019-01-10T02:05:07.088Z,1007.19
2019-01-10T02:06:03.872Z,1007.19
2019-01-10T02:07:00.124Z,1007.21
2019-01-10T02:08:03.585Z,1007.24
2019-01-10T02:09:00.855Z,1007.24
2019-01-10T02:10:05.635Z,1007.27
2019-01-10T02:11:06.674Z,1007.3
2019-01-10T02:12:02.259Z,1007.16
2019-01-10T02:12:58.758Z,1007.24
2019-01-10T02:13:54.733Z,1007.18
2019-01-10T02:14:51.319Z,1007.19
2019-01-10T02:15:47.801Z,1007.18
2019-01-10T02:16:47.266Z,1007.18
2019-01-10T02:17:48.870Z,1007.19
2019-01-10T02:17:49.439Z,1007.19
2019-01-10T02:18:43.573Z,1007.22
2019-01-10T02:19:39.094Z,1007.15
2019-01-10T02:20:35.084Z,1007.18
2019-01-10T02:21:31.262Z,1007.21
2019-01-10T02:22:27.372Z,1007.21
2019-01-10T02:23:24.189Z,1007.18
2019-01-10T02:24:24.446Z,1007.27
2019-01-10T02:25:22.624Z,1007.28
2019-01-10T02:26:21.142Z,1007.21
2019-01-10T02:27:18.490Z,1007.19
2019-01-10T02:28:16.677Z,1007.25
2019-01-10T02:29:14.386Z,1007.27
2019-01-10T02:30:11.429Z,1007.25
2019-01-10T02:31:09.073Z,1007.31
2019-01-10T02:32:06.434Z,1007.28
2019-01-10T02:33:13.662Z,1007.29
2019-01-10T02:34:09.797Z,1007.24
2019-01-10T02:35:11.592Z,1007.41
2019-01-10T02:36:25.947Z,1007.4
2019-01-10T02:37:23.801Z,1007.38
2019-01-10T02:38:24.994Z,1007.35
2019-01-10T02:39:21.652Z,1007.38
2019-01-10T02:40:18.931Z,1007.32
2019-01-10T02:41:15.908Z,1007.22
2019-01-10T02:42:13.701Z,1007.34
2019-01-10T02:43:10.130Z,1007.26
2019-01-10T02:44:09.508Z,1007.37
2019-01-10T02:45:05.350Z,1007.34
2019-01-10T02:46:04.893Z,1007.4
2019-01-10T02:47:00.958Z,1007.47
2019-01-10T02:48:01.494Z,1007.45
2019-01-10T02:49:05.363Z,1007.47
2019-01-10T02:50:06.663Z,1007.38
2019-01-10T02:51:06.386Z,1007.42
2019-01-10T02:52:03.754Z,1007.5
2019-01-10T02:52:59.098Z,1007.48
2019-01-10T02:53:54.995Z,1007.42
2019-01-10T02:54:52.601Z,1007.42
2019-01-10T02:55:54.671Z,1007.48
2019-01-10T02:56:52.112Z,1007.47
2019-01-10T02:57:49.997Z,1007.42
2019-01-10T02:58:49.149Z,1007.53
2019-01-10T02:59:44.542Z,1007.37
2019-01-10T03:00:55.514Z,1007.38
2019-01-10T03:01:51.839Z,1007.45
2019-01-10T03:02:53.587Z,1007.47
2019-01-10T03:03:49.475Z,1007.53
2019-01-10T03:04:51.903Z,1007.39
2019-01-10T03:05:48.127Z,1007.44
2019-01-10T03:06:45.829Z,1007.39
2019-01-10T03:07:44.066Z,1007.42
2019-01-10T03:08:47.375Z,1007.39
2019-01-10T03:09:46.902Z,1007.35
2019-01-10T03:10:43.768Z,1007.39
2019-01-10T03:11:39.383Z,1007.38
2019-01-10T03:12:42.240Z,1007.47
2019-01-10T03:13:44.579Z,1007.42
2019-01-10T03:14:40.895Z,1007.47
2019-01-10T03:15:39.419Z,1007.38
2019-01-10T03:16:35.884Z,1007.36
2019-01-10T03:17:42.304Z,1007.47
2019-01-10T03:18:38.233Z,1007.35
2019-01-10T03:19:33.890Z,1007.39
2019-01-10T03:20:31.183Z,1007.41
2019-01-10T03:21:35.205Z,1007.38
2019-01-10T03:22:40.018Z,1007.41
2019-01-10T03:23:35.109Z,1007.41
2019-01-10T03:24:38.649Z,1007.48
2019-01-10T03:25:36.251Z,1007.47
2019-01-10T03:26:35.221Z,1007.5
2019-01-10T03:27:34.200Z,1007.38
2019-01-10T03:28:30.183Z,1007.45
2019-01-10T03:29:26.615Z,1007.42
2019-01-10T03:30:25.621Z,1007.42
2019-01-10T03:31:22.235Z,1007.41
2019-01-10T03:32:19.549Z,1007.44
2019-01-10T03:33:15.961Z,1007.41
2019-01-10T03:34:13.175Z,1007.38
2019-01-10T03:35:13.867Z,1007.38
2019-01-10T03:36:13.191Z,1007.38
2019-01-10T03:37:12.017Z,1007.45
2019-01-10T03:38:08.997Z,1007.45
2019-01-10T03:39:04.770Z,1007.42
2019-01-10T03:40:01.805Z,1007.41
2019-01-10T03:40:59.449Z,1007.39
2019-01-10T03:41:55.252Z,1007.45
2019-01-10T03:42:55.755Z,1007.44
2019-01-10T03:43:51.319Z,1007.33
2019-01-10T03:44:47.024Z,1007.35
2019-01-10T03:45:43.454Z,1007.39
2019-01-10T03:46:40.653Z,1007.36
2019-01-10T03:47:36.517Z,1007.41
2019-01-10T03:48:32.418Z,1007.36
2019-01-10T03:49:29.053Z,1007.45
2019-01-10T03:50:27.605Z,1007.35
2019-01-10T03:51:24.264Z,1007.42
2019-01-10T03:52:22.846Z,1007.48
2019-01-10T03:53:26.393Z,1007.49
2019-01-10T03:54:23.465Z,1007.46
2019-01-10T03:55:20.281Z,1007.41
2019-01-10T03:56:15.517Z,1007.49
2019-01-10T03:57:17.387Z,1007.43
2019-01-10T03:58:16.228Z,1007.49
2019-01-10T03:59:15.029Z,1007.42
2019-01-10T04:00:12.780Z,1007.46
2019-01-10T04:01:08.438Z,1007.48
2019-01-10T04:02:12.216Z,1007.43
2019-01-10T04:03:07.457Z,1007.46
2019-01-10T04:04:03.830Z,1007.52
2019-01-10T04:05:06.773Z,1007.46
2019-01-10T04:06:06.109Z,1007.49
2019-01-10T04:07:01.764Z,1007.49
2019-01-10T04:07:57.405Z,1007.49
2019-01-10T04:08:53.186Z,1007.48
2019-01-10T04:09:50.859Z,1007.46
2019-01-10T04:10:47.242Z,1007.42
2019-01-10T04:11:49.868Z,1007.55
2019-01-10T04:12:56.060Z,1007.51
2019-01-10T04:13:57.481Z,1007.49
2019-01-10T04:15:01.882Z,1007.46
2019-01-10T04:16:00.627Z,1007.51
2019-01-10T04:16:59.262Z,1007.52
2019-01-10T04:17:54.645Z,1007.49
2019-01-10T04:18:58.111Z,1007.55
2019-01-10T04:19:55.049Z,1007.52
2019-01-10T04:20:54.308Z,1007.57
2019-01-10T04:21:50.160Z,1007.55
2019-01-10T04:22:45.949Z,1007.58
2019-01-10T04:23:44.564Z,1007.45
2019-01-10T04:24:43.346Z,1007.52
2019-01-10T04:25:39.999Z,1007.49
2019-01-10T04:26:38.142Z,1007.48
2019-01-10T04:27:34.773Z,1007.51
2019-01-10T04:28:38.254Z,1007.49
2019-01-10T04:29:35.036Z,1007.46
2019-01-10T04:30:31.205Z,1007.52
2019-01-10T04:31:26.410Z,1007.48
2019-01-10T04:32:21.808Z,1007.61
2019-01-10T04:33:18.935Z,1007.53
2019-01-10T04:34:14.450Z,1007.55
2019-01-10T04:35:12.016Z,1007.55
2019-01-10T04:36:10.863Z,1007.51
2019-01-10T04:37:06.182Z,1007.56
2019-01-10T04:38:01.972Z,1007.49
2019-01-10T04:39:01.405Z,1007.62
2019-01-10T04:39:56.708Z,1007.67
2019-01-10T04:40:52.145Z,1007.73
2019-01-10T04:41:51.951Z,1007.64
2019-01-10T04:42:54.003Z,1007.71
2019-01-10T04:43:52.150Z,1007.74
2019-01-10T04:44:49.400Z,1007.74
2019-01-10T04:45:44.577Z,1007.64
2019-01-10T04:46:40.269Z,1007.68
2019-01-10T04:47:37.748Z,1007.68
2019-01-10T04:48:36.164Z,1007.67
2019-01-10T04:49:36.163Z,1007.71
2019-01-10T04:50:41.354Z,1007.75
2019-01-10T04:51:36.503Z,1007.68
2019-01-10T04:52:36.490Z,1007.68
2019-01-10T04:53:34.622Z,1007.71
2019-01-10T04:54:32.179Z,1007.68
2019-01-10T04:55:29.227Z,1007.61
2019-01-10T04:56:25.269Z,1007.67
2019-01-10T04:57:22.103Z,1007.62
2019-01-10T04:58:19.195Z,1007.7
2019-01-10T04:59:17.307Z,1007.67
2019-01-10T05:00:14.827Z,1007.67
2019-01-10T05:01:11.034Z,1007.72
2019-01-10T05:02:06.635Z,1007.71
2019-01-10T05:03:05.714Z,1007.71
2019-01-10T05:04:01.856Z,1007.74
2019-01-10T05:05:01.776Z,1007.65
2019-01-10T05:06:06.047Z,1007.77
2019-01-10T05:07:13.079Z,1007.78
2019-01-10T05:08:08.703Z,1007.78
2019-01-10T05:09:07.411Z,1007.72
2019-01-10T05:10:05.115Z,1007.8
2019-01-10T05:11:02.888Z,1007.81
2019-01-10T05:12:11.188Z,1007.69
2019-01-10T05:13:09.072Z,1007.72
2019-01-10T05:14:16.367Z,1007.78
2019-01-10T05:14:16.779Z,1007.78
2019-01-10T05:15:07.608Z,1007.86
2019-01-10T05:16:06.131Z,1007.78
2019-01-10T05:17:02.018Z,1007.72
2019-01-10T05:18:02.524Z,1007.64
2019-01-10T05:19:02.193Z,1007.62
2019-01-10T05:19:59.955Z,1007.71
2019-01-10T05:20:59.353Z,1007.68
2019-01-10T05:21:56.776Z,1007.66
2019-01-10T05:22:55.307Z,1007.66
2019-01-10T05:23:50.879Z,1007.68
2019-01-10T05:24:49.787Z,1007.68
2019-01-10T05:25:47.430Z,1007.63
2019-01-10T05:26:44.390Z,1007.63
2019-01-10T05:27:40.016Z,1007.68
2019-01-10T05:28:43.348Z,1007.65
2019-01-10T05:29:44.978Z,1007.72
2019-01-10T05:30:43.340Z,1007.63
2019-01-10T05:31:38.990Z,1007.75
2019-01-10T05:32:36.326Z,1007.75
2019-01-10T05:33:37.468Z,1007.72
2019-01-10T05:34:33.387Z,1007.66
2019-01-10T05:35:33.992Z,1007.75
2019-01-10T05:36:30.414Z,1007.71
2019-01-10T05:37:27.254Z,1007.74
2019-01-10T05:38:22.611Z,1007.72
2019-01-10T05:39:19.722Z,1007.68
2019-01-10T05:40:21.578Z,1007.69
2019-01-10T05:41:17.264Z,1007.62
2019-01-10T05:42:15.476Z,1007.71
2019-01-10T05:43:17.509Z,1007.66
2019-01-10T05:44:15.976Z,1007.59
2019-01-10T05:45:11.811Z,1007.66
2019-01-10T05:46:13.137Z,1007.68
2019-01-10T05:47:10.847Z,1007.69
2019-01-10T05:48:15.029Z,1007.69
2019-01-10T05:49:14.605Z,1007.66
2019-01-10T05:50:12.615Z,1007.71
2019-01-10T05:51:08.481Z,1007.71
2019-01-10T05:52:03.569Z,1007.65
2019-01-10T05:52:58.988Z,1007.62
2019-01-10T05:53:54.203Z,1007.6
2019-01-10T05:54:49.452Z,1007.6
2019-01-10T05:55:48.457Z,1007.62
2019-01-10T05:56:45.869Z,1007.65
2019-01-10T05:57:44.959Z,1007.54
2019-01-10T05:58:41.144Z,1007.62
2019-01-10T05:59:39.195Z,1007.75
2019-01-10T06:00:38.714Z,1007.74
2019-01-10T06:01:37.365Z,1007.76
2019-01-10T06:02:37.683Z,1007.81
2019-01-10T06:03:53.365Z,1007.76
2019-01-10T06:04:46.878Z,1007.79
2019-01-10T06:05:44.341Z,1007.78
2019-01-10T06:06:47.206Z,1007.93
2019-01-10T06:07:43.827Z,1007.82
2019-01-10T06:08:40.891Z,1007.93
2019-01-10T06:09:38.941Z,1007.82
2019-01-10T06:10:38.002Z,1007.82
2019-01-10T06:11:33.541Z,1007.84
2019-01-10T06:12:28.761Z,1007.88
2019-01-10T06:13:26.465Z,1007.81
2019-01-10T06:14:22.948Z,1007.88
2019-01-10T06:15:19.370Z,1007.99
2019-01-10T06:16:17.559Z,1007.92
2019-01-10T06:17:13.285Z,1007.94
2019-01-10T06:18:22.159Z,1007.91
2019-01-10T06:19:26.517Z,1007.99
2019-01-10T06:19:27.006Z,1007.99
2019-01-10T06:20:21.562Z,1008.02
2019-01-10T06:21:17.937Z,1007.97
2019-01-10T06:22:17.074Z,1008.02
2019-01-10T06:23:15.384Z,1008.09
2019-01-10T06:24:11.980Z,1007.97
2019-01-10T06:25:11.906Z,1008.12
2019-01-10T06:26:07.467Z,1008.05
2019-01-10T06:27:03.395Z,1008.03
2019-01-10T06:27:58.747Z,1008.03
2019-01-10T06:28:58.026Z,1008
2019-01-10T06:29:54.068Z,1008.12
2019-01-10T06:30:49.619Z,1008.08
2019-01-10T06:31:45.815Z,1008.13
2019-01-10T06:32:42.487Z,1008.19
2019-01-10T06:33:39.368Z,1008.13
2019-01-10T06:34:34.889Z,1008.16
2019-01-10T06:35:34.597Z,1008.16
2019-01-10T06:36:31.685Z,1008.18
2019-01-10T06:37:30.344Z,1008.18
2019-01-10T06:38:27.405Z,1008.18
2019-01-10T06:39:25.917Z,1008.19
2019-01-10T06:40:27.504Z,1008.18
2019-01-10T06:41:29.754Z,1008.19
2019-01-10T06:42:31.290Z,1008.18
2019-01-10T06:43:29.388Z,1008.19
2019-01-10T06:44:33.905Z,1008.24
2019-01-10T06:45:31.235Z,1008.26
2019-01-10T06:46:46.802Z,1008.25
2019-01-10T06:47:43.535Z,1008.22
2019-01-10T06:48:42.749Z,1008.28
2019-01-10T06:49:41.281Z,1008.31
2019-01-10T06:50:41.718Z,1008.26
2019-01-10T06:51:39.483Z,1008.22
2019-01-10T06:52:35.904Z,1008.32
2019-01-10T06:53:32.006Z,1008.25
2019-01-10T06:54:34.608Z,1008.25
2019-01-10T06:55:33.321Z,1008.43
2019-01-10T06:56:28.456Z,1008.34
2019-01-10T06:57:24.332Z,1008.31
2019-01-10T06:58:21.087Z,1008.32
2019-01-10T06:59:16.556Z,1008.31
2019-01-10T07:00:17.025Z,1008.28
2019-01-10T07:01:12.488Z,1008.35
2019-01-10T07:02:07.711Z,1008.37
2019-01-10T07:03:07.192Z,1008.34
2019-01-10T07:04:03.665Z,1008.31
2019-01-10T07:05:04.475Z,1008.44
2019-01-10T07:06:01.048Z,1008.38
2019-01-10T07:07:01.001Z,1008.49
2019-01-10T07:07:57.161Z,1008.53
2019-01-10T07:08:55.891Z,1008.46
2019-01-10T07:09:50.915Z,1008.44
2019-01-10T07:10:46.713Z,1008.52
2019-01-10T07:11:43.481Z,1008.35
2019-01-10T07:12:40.592Z,1008.56
2019-01-10T07:13:38.078Z,1008.52
2019-01-10T07:14:34.245Z,1008.46
2019-01-10T07:15:32.507Z,1008.59
2019-01-10T07:16:30.252Z,1008.55
2019-01-10T07:17:32.390Z,1008.5
2019-01-10T07:18:28.186Z,1008.52
2019-01-10T07:19:23.894Z,1008.49
2019-01-10T07:20:19.848Z,1008.44
2019-01-10T07:21:22.992Z,1008.49
2019-01-10T07:22:20.297Z,1008.56
2019-01-10T07:23:16.329Z,1008.53
2019-01-10T07:24:16.883Z,1008.55
2019-01-10T07:25:15.023Z,1008.55
2019-01-10T07:26:12.839Z,1008.56
2019-01-10T07:27:08.538Z,1008.55
2019-01-10T07:28:08.374Z,1008.59
2019-01-10T07:29:07.684Z,1008.55
2019-01-10T07:30:02.928Z,1008.6
2019-01-10T07:31:03.119Z,1008.58
2019-01-10T07:32:01.937Z,1008.63
2019-01-10T07:32:59.751Z,1008.59
2019-01-10T07:33:57.586Z,1008.57
2019-01-10T07:34:54.997Z,1008.55
2019-01-10T07:35:52.045Z,1008.52
2019-01-10T07:36:47.643Z,1008.59
2019-01-10T07:37:44.731Z,1008.57
2019-01-10T07:38:42.070Z,1008.56
2019-01-10T07:39:38.828Z,1008.6
2019-01-10T07:40:37.501Z,1008.62
2019-01-10T07:41:33.977Z,1008.6
2019-01-10T07:42:35.483Z,1008.57
2019-01-10T07:43:32.003Z,1008.59
2019-01-10T07:44:28.247Z,1008.68
2019-01-10T07:45:31.475Z,1008.66
2019-01-10T07:46:28.302Z,1008.59
2019-01-10T07:47:35.441Z,1008.62
2019-01-10T07:48:30.493Z,1008.54
2019-01-10T07:49:28.431Z,1008.68
2019-01-10T07:50:25.423Z,1008.63
2019-01-10T07:51:20.539Z,1008.6
2019-01-10T07:52:17.297Z,1008.57
2019-01-10T07:53:15.683Z,1008.63
2019-01-10T07:54:13.444Z,1008.65
2019-01-10T07:55:09.700Z,1008.6
2019-01-10T07:56:06.289Z,1008.62
2019-01-10T07:57:01.614Z,1008.6
2019-01-10T07:58:04.759Z,1008.6
2019-01-10T07:58:59.977Z,1008.57
2019-01-10T07:59:58.960Z,1008.63
2019-01-10T08:00:53.888Z,1008.63
2019-01-10T08:01:48.474Z,1008.74
2019-01-10T08:02:44.462Z,1008.68
2019-01-10T08:03:10.873Z,1008.62
2019-01-10T08:04:12.521Z,1008.69
2019-01-10T08:05:12.279Z,1008.66
2019-01-10T08:06:08.811Z,1008.65
2019-01-10T08:07:05.602Z,1008.68
2019-01-10T08:08:02.392Z,1008.68
2019-01-10T08:09:01.200Z,1008.63
2019-01-10T08:09:58.286Z,1008.71
2019-01-10T08:10:54.248Z,1008.75
2019-01-10T08:12:00.354Z,1008.76
2019-01-10T08:12:00.494Z,1008.76
2019-01-10T08:12:48.853Z,1008.76
2019-01-10T08:13:44.747Z,1008.77
2019-01-10T08:14:41.456Z,1008.71
2019-01-10T08:15:36.904Z,1008.83
2019-01-10T08:16:35.367Z,1008.83
2019-01-10T08:17:29.161Z,1008.74
2019-01-10T08:18:25.097Z,1008.85
2019-01-10T08:19:20.537Z,1008.91
2019-01-10T08:20:16.955Z,1008.91
2019-01-10T08:21:12.615Z,1008.92
2019-01-10T08:22:07.982Z,1008.89
2019-01-10T08:23:03.883Z,1008.86
2019-01-10T08:23:58.671Z,1008.86
2019-01-10T08:24:55.874Z,1008.96
2019-01-10T08:25:52.974Z,1008.99
2019-01-10T08:26:51.373Z,1008.99
2019-01-10T08:27:46.171Z,1008.99
2019-01-10T08:28:43.707Z,1009.06
2019-01-10T08:29:41.160Z,1009.09
2019-01-10T08:30:39.111Z,1009
2019-01-10T08:31:35.151Z,1009
2019-01-10T08:32:29.775Z,1009.09
2019-01-10T08:33:30.815Z,1009.04
2019-01-10T08:34:26.566Z,1009.06
2019-01-10T08:35:24.568Z,1009.15
2019-01-10T08:36:32.467Z,1009.09
2019-01-10T08:36:32.581Z,1009.09
2019-01-10T08:37:26.168Z,1009.09
2019-01-10T08:38:22.222Z,1009.06
2019-01-10T08:39:16.861Z,1009.08
2019-01-10T08:40:12.322Z,1009.03
2019-01-10T08:41:15.040Z,1009.12
2019-01-10T08:42:11.416Z,1009.13
2019-01-10T08:43:07.196Z,1009.18
2019-01-10T08:44:07.194Z,1009.23
2019-01-10T08:45:02.735Z,1009.16
2019-01-10T08:45:57.980Z,1009.29
2019-01-10T08:46:54.319Z,1009.2
2019-01-10T08:47:51.493Z,1009.22
2019-01-10T08:48:47.473Z,1009.18
2019-01-10T08:49:43.985Z,1009.16
2019-01-10T08:50:39.111Z,1009.11
2019-01-10T08:51:38.001Z,1009.27
2019-01-10T08:52:31.244Z,1009.12
2019-01-10T08:53:31.792Z,1009.16
2019-01-10T08:54:28.049Z,1009.05
2019-01-10T08:55:25.064Z,1009.16
2019-01-10T08:56:25.788Z,1009.16
2019-01-10T08:57:22.962Z,1009.2
2019-01-10T08:58:20.239Z,1009.21
2019-01-10T08:59:20.661Z,1009.11
2019-01-10T09:00:19.877Z,1009.03
2019-01-10T09:01:15.680Z,1009.04
2019-01-10T09:02:16.789Z,1009.1
2019-01-10T09:03:14.934Z,1009.11
2019-01-10T09:04:14.703Z,1009.17
2019-01-10T09:05:13.672Z,1009.16
2019-01-10T09:06:09.904Z,1009.17
2019-01-10T09:07:06.033Z,1009.14
2019-01-10T09:08:23.667Z,1009.16
2019-01-10T09:09:22.677Z,1009.26
2019-01-10T09:10:18.265Z,1009.21
2019-01-10T09:11:14.404Z,1009.15
2019-01-10T09:12:10.448Z,1009.14
2019-01-10T09:13:07.593Z,1009.11
2019-01-10T09:14:04.703Z,1009.17
2019-01-10T09:15:02.431Z,1009.21
2019-01-10T09:16:01.891Z,1009.24
2019-01-10T09:16:59.593Z,1009.2
2019-01-10T09:17:56.199Z,1009.19
2019-01-10T09:18:55.964Z,1009.11
2019-01-10T09:19:55.827Z,1009.16
2019-01-10T09:21:03.993Z,1009.22
2019-01-10T09:21:04.398Z,1009.22
2019-01-10T09:21:51.549Z,1009.13
2019-01-10T09:22:51.913Z,1009.15
2019-01-10T09:25:14.596Z,1009.27
2019-01-10T09:26:10.114Z,1009.29
2019-01-10T09:27:10.638Z,1009.29
2019-01-10T09:28:10.982Z,1009.18
2019-01-10T09:29:09.262Z,1009.38
2019-01-10T09:30:11.877Z,1009.27
2019-01-10T09:31:11.109Z,1009.38
2019-01-10T09:32:15.915Z,1009.39
2019-01-10T09:33:15.233Z,1009.42
2019-01-10T09:34:14.235Z,1009.46
2019-01-10T09:35:16.121Z,1009.42
2019-01-10T09:36:17.487Z,1009.44
2019-01-10T09:37:16.330Z,1009.47
2019-01-10T09:38:17.490Z,1009.44
2019-01-10T09:39:16.272Z,1009.57
2019-01-10T09:40:14.833Z,1009.53
2019-01-10T09:41:14.436Z,1009.63
2019-01-10T09:42:26.697Z,1009.61
2019-01-10T09:43:25.810Z,1009.67
2019-01-10T09:44:27.409Z,1009.5
2019-01-10T09:45:43.032Z,1009.63
2019-01-10T09:45:43.449Z,1009.63
2019-01-10T09:46:45.572Z,1009.61
2019-01-10T09:47:44.745Z,1009.6
2019-01-10T09:48:44.106Z,1009.64
2019-01-10T09:51:18.610Z,1009.67
2019-01-10T09:52:08.063Z,1009.63
2019-01-10T09:53:09.450Z,1009.62
2019-01-10T09:54:07.922Z,1009.63
2019-01-10T09:55:09.462Z,1009.51
2019-01-10T09:56:12.387Z,1009.56
2019-01-10T09:57:11.741Z,1009.51
2019-01-10T09:58:13.593Z,1009.53
2019-01-10T09:59:21.595Z,1009.57
2019-01-10T10:01:50.006Z,1009.5
2019-01-10T10:02:44.687Z,1009.58
2019-01-10T10:03:43.238Z,1009.55
2019-01-10T10:04:47.613Z,1009.64
2019-01-10T10:05:45.428Z,1009.6
2019-01-10T10:06:47.370Z,1009.58
2019-01-10T10:07:47.961Z,1009.58
2019-01-10T10:08:46.139Z,1009.57
2019-01-10T10:10:48.107Z,1009.58
2019-01-10T10:11:47.916Z,1009.58
2019-01-10T10:12:50.326Z,1009.66
2019-01-10T10:13:49.591Z,1009.64
2019-01-10T10:14:47.588Z,1009.6
2019-01-10T10:15:52.276Z,1009.6
2019-01-10T10:15:52.665Z,1009.6
2019-01-10T10:16:47.119Z,1009.67
2019-01-10T10:17:45.208Z,1009.71
2019-01-10T10:18:43.246Z,1009.67
2019-01-10T10:19:41.217Z,1009.71
2019-01-10T10:20:42.962Z,1009.7
2019-01-10T10:21:45.101Z,1009.62
2019-01-10T10:22:47.688Z,1009.68
2019-01-10T10:23:48.243Z,1009.65
2019-01-10T10:24:49.342Z,1009.59
2019-01-10T10:25:49.894Z,1009.64
2019-01-10T10:26:48.721Z,1009.62
2019-01-10T10:27:47.416Z,1009.62
2019-01-10T10:28:45.566Z,1009.66
2019-01-10T10:29:44.304Z,1009.71
2019-01-10T10:30:46.724Z,1009.63
2019-01-10T10:31:46.393Z,1009.66
2019-01-10T10:32:48.229Z,1009.63
2019-01-10T10:33:46.674Z,1009.69
2019-01-10T10:34:46.077Z,1009.75
2019-01-10T10:35:45.313Z,1009.71
2019-01-10T10:36:47.758Z,1009.72
2019-01-10T10:37:45.936Z,1009.72
2019-01-10T10:38:43.913Z,1009.73
2019-01-10T10:39:43.480Z,1009.72
2019-01-10T10:40:44.710Z,1009.75
2019-01-10T10:41:43.977Z,1009.73
2019-01-10T10:42:45.016Z,1009.67
2019-01-10T10:43:45.024Z,1009.69
2019-01-10T10:44:43.238Z,1009.69
2019-01-10T10:45:41.059Z,1009.73
2019-01-10T10:46:39.507Z,1009.67
2019-01-10T10:47:41.298Z,1009.64
2019-01-10T10:48:41.899Z,1009.67
2019-01-10T10:49:43.583Z,1009.64
2019-01-10T10:50:41.753Z,1009.72
2019-01-10T10:53:28.272Z,1009.7
2019-01-10T10:54:25.217Z,1009.73
2019-01-10T10:55:22.808Z,1009.57
2019-01-10T10:56:21.065Z,1009.73
2019-01-10T10:57:19.081Z,1009.76
2019-01-10T10:58:16.866Z,1009.73
2019-01-10T10:59:17.945Z,1009.77
2019-01-10T11:02:25.287Z,1009.72
2019-01-10T11:03:24.083Z,1009.61
2019-01-10T11:04:21.131Z,1009.57
2019-01-10T11:05:25.570Z,1009.64
2019-01-10T11:06:29.915Z,1009.69
2019-01-10T11:08:40.821Z,1009.73
2019-01-10T11:09:39.344Z,1009.77
2019-01-10T11:10:37.089Z,1009.71
2019-01-10T11:11:34.859Z,1009.7
2019-01-10T11:12:35.092Z,1009.67
2019-01-10T11:13:32.772Z,1009.64
2019-01-10T11:14:31.589Z,1009.69
2019-01-10T11:15:30.280Z,1009.7
2019-01-10T11:16:27.483Z,1009.7
2019-01-10T11:17:24.592Z,1009.6
2019-01-10T11:18:21.621Z,1009.63
2019-01-10T11:19:19.640Z,1009.55
2019-01-10T11:20:17.706Z,1009.51
2019-01-10T11:21:15.812Z,1009.58
2019-01-10T11:22:12.899Z,1009.6
2019-01-10T11:23:17.752Z,1009.55
2019-01-10T11:24:15.749Z,1009.67
2019-01-10T11:25:13.961Z,1009.66
2019-01-10T11:26:11.014Z,1009.6
2019-01-10T11:27:15.350Z,1009.75
2019-01-10T11:28:14.307Z,1009.75
2019-01-10T11:29:11.477Z,1009.73
2019-01-10T11:30:09.180Z,1009.72
2019-01-10T11:31:09.275Z,1009.7
2019-01-10T11:32:13.135Z,1009.67
2019-01-10T11:32:13.295Z,1009.67
2019-01-10T11:33:07.258Z,1009.66
2019-01-10T11:34:11.063Z,1009.64
2019-01-10T11:35:10.959Z,1009.6
2019-01-10T11:36:08.129Z,1009.57
2019-01-10T11:37:05.765Z,1009.53
2019-01-10T11:38:06.127Z,1009.6
2019-01-10T11:39:06.643Z,1009.51
2019-01-10T11:40:08.934Z,1009.54
2019-01-10T11:41:05.815Z,1009.53
2019-01-10T11:42:05.262Z,1009.56
2019-01-10T11:43:05.268Z,1009.53
2019-01-10T11:44:04.636Z,1009.53
2019-01-10T11:45:06.715Z,1009.53
2019-01-10T11:46:06.768Z,1009.53
2019-01-10T11:47:04.022Z,1009.48
2019-01-10T11:48:01.222Z,1009.56
2019-01-10T11:48:59.636Z,1009.48
2019-01-10T11:49:59.368Z,1009.59
2019-01-10T11:50:57.197Z,1009.44